createdAt,value
2022-11-08T00:02:10.698Z,6.30
2022-11-08T00:04:41.903Z,6.63
2022-11-08T00:07:34.371Z,6.68
2022-11-08T00:10:31.202Z,7.60
2022-11-08T00:13:29.708Z,7.40
2022-11-08T00:16:06.130Z,6.63
2022-11-08T00:18:44.854Z,6.65
2022-11-08T00:21:33.788Z,7.50
2022-11-08T00:24:19.825Z,7.57
2022-11-08T00:27:10.364Z,6.50
2022-11-08T00:29:39.083Z,6.93
2022-11-08T00:32:14.122Z,7.40
2022-11-08T00:34:56.261Z,7.10
2022-11-08T00:37:47.307Z,6.85
2022-11-08T00:40:35.037Z,7.88
2022-11-08T00:43:08.436Z,6.85
2022-11-08T00:45:40.027Z,7.43
2022-11-08T00:48:16.192Z,6.55
2022-11-08T00:50:48.812Z,6.88
2022-11-08T00:53:33.123Z,6.60
2022-11-08T00:56:22.370Z,7.28
2022-11-08T00:58:53.097Z,6.25
2022-11-08T01:01:35.977Z,6.72
2022-11-08T01:04:12.136Z,6.75
2022-11-08T01:06:42.079Z,7.47
2022-11-08T01:09:11.644Z,7.22
2022-11-08T01:11:51.499Z,6.72
2022-11-08T01:14:32.384Z,6.95
2022-11-08T01:17:07.565Z,6.78
2022-11-08T01:19:45.652Z,6.75
2022-11-08T01:22:18.832Z,6.35
2022-11-08T01:24:47.583Z,7.00
2022-11-08T01:27:16.750Z,7.28
2022-11-08T01:29:56.507Z,6.82
2022-11-08T01:32:54.887Z,7.05
2022-11-08T01:35:30.457Z,7.30
2022-11-08T01:38:04.926Z,7.25
2022-11-08T01:40:48.784Z,6.75
2022-11-08T01:43:30.325Z,7.22
2022-11-08T01:46:19.804Z,6.70
2022-11-08T01:49:19.805Z,6.70
2022-11-08T01:52:10.009Z,7.88
2022-11-08T01:54:55.220Z,6.85
2022-11-08T01:57:36.044Z,6.30
2022-11-08T02:00:12.403Z,6.60
2022-11-08T02:02:43.879Z,7.43
2022-11-08T02:05:26.429Z,6.78
2022-11-08T02:08:22.137Z,6.93
2022-11-08T02:10:53.314Z,7.05
2022-11-08T02:13:33.841Z,7.70
2022-11-08T02:16:01.757Z,7.43
2022-11-08T02:18:32.332Z,7.82
2022-11-08T02:21:26.756Z,7.80
2022-11-08T02:23:59.081Z,8.30
2022-11-08T02:26:35.202Z,7.65
2022-11-08T02:29:30.270Z,7.82
2022-11-08T02:31:59.773Z,7.65
2022-11-08T02:34:46.800Z,8.30
2022-11-08T02:37:18.945Z,8.60
2022-11-08T02:39:47.961Z,8.57
2022-11-08T02:42:20.837Z,7.97
2022-11-08T02:44:48.571Z,8.35
2022-11-08T02:47:16.984Z,7.35
2022-11-08T02:49:44.654Z,7.25
2022-11-08T02:52:12.085Z,7.22
2022-11-08T02:54:39.902Z,7.57
2022-11-08T02:57:07.380Z,7.05
2022-11-08T02:59:36.730Z,7.47
2022-11-08T03:02:04.115Z,7.13
2022-11-08T03:04:31.575Z,7.18
2022-11-08T03:06:58.802Z,7.53
2022-11-08T03:09:27.331Z,7.80
2022-11-08T03:11:54.963Z,7.35
2022-11-08T03:14:47.098Z,6.95
2022-11-08T03:17:14.379Z,7.32
2022-11-08T03:19:41.627Z,7.60
2022-11-08T03:22:08.825Z,7.25
2022-11-08T03:24:36.344Z,7.25
2022-11-08T03:27:03.736Z,7.28
2022-11-08T03:29:30.970Z,6.80
2022-11-08T03:31:58.668Z,6.95
2022-11-08T03:34:26.375Z,6.65
2022-11-08T03:36:53.686Z,7.10
2022-11-08T03:39:21.268Z,6.90
2022-11-08T03:41:49.245Z,6.70
2022-11-08T03:44:16.601Z,6.88
2022-11-08T03:46:44.064Z,7.15
2022-11-08T03:49:11.526Z,7.15
2022-11-08T03:51:38.715Z,6.68
2022-11-08T03:54:05.925Z,7.18
2022-11-08T03:56:33.022Z,7.57
2022-11-08T03:59:00.226Z,6.68
2022-11-08T04:01:27.980Z,6.90
2022-11-08T04:03:55.613Z,7.00
2022-11-08T04:06:23.074Z,6.57
2022-11-08T04:08:50.555Z,6.30
2022-11-08T04:11:36.842Z,6.88
2022-11-08T04:14:23.067Z,6.97
2022-11-08T04:16:50.423Z,6.82
2022-11-08T04:19:36.509Z,7.57
2022-11-08T04:22:04.729Z,7.45
2022-11-08T04:24:32.111Z,7.28
2022-11-08T04:26:59.777Z,7.57
2022-11-08T04:29:27.127Z,7.07
2022-11-08T04:31:54.488Z,6.88
2022-11-08T04:34:22.184Z,7.22
2022-11-08T04:36:49.646Z,7.82
2022-11-08T04:39:17.642Z,7.28
2022-11-08T04:41:45.197Z,7.90
2022-11-08T04:44:12.580Z,7.35
2022-11-08T04:46:43.627Z,7.85
2022-11-08T04:49:11.490Z,7.82
2022-11-08T04:51:38.787Z,7.65
2022-11-08T04:54:07.646Z,7.93
2022-11-08T04:56:35.194Z,7.70
2022-11-08T04:59:02.398Z,7.32
2022-11-08T05:01:31.876Z,7.32
2022-11-08T05:03:59.459Z,7.57
2022-11-08T05:06:31.678Z,7.75
2022-11-08T05:09:00.518Z,7.97
2022-11-08T05:11:30.641Z,7.82
2022-11-08T05:13:58.454Z,8.73
2022-11-08T05:16:32.339Z,8.15
2022-11-08T05:19:00.207Z,8.32
2022-11-08T05:21:46.227Z,7.57
2022-11-08T05:24:17.212Z,7.88
2022-11-08T05:26:48.617Z,7.97
2022-11-08T05:29:17.397Z,8.02
2022-11-08T05:31:45.272Z,8.63
2022-11-08T05:34:12.559Z,8.75
2022-11-08T05:36:39.710Z,8.85
2022-11-08T05:39:10.189Z,8.70
2022-11-08T05:41:38.511Z,8.90
2022-11-08T05:44:06.164Z,9.95
2022-11-08T05:46:37.006Z,10.02
2022-11-08T05:49:05.054Z,9.35
2022-11-08T05:51:32.804Z,9.98
2022-11-08T05:54:00.304Z,9.82
2022-11-08T05:56:28.263Z,10.20
2022-11-08T05:58:56.316Z,9.65
2022-11-08T06:01:23.561Z,9.98
2022-11-08T06:03:50.880Z,9.87
2022-11-08T06:06:21.654Z,10.18
2022-11-08T06:08:50.917Z,10.15
2022-11-08T06:11:24.649Z,10.02
2022-11-08T06:13:54.719Z,11.30
2022-11-08T06:16:24.225Z,9.48
2022-11-08T06:18:51.751Z,10.20
2022-11-08T06:21:21.305Z,11.43
2022-11-08T06:23:53.500Z,11.07
2022-11-08T06:26:23.849Z,12.07
2022-11-08T06:28:52.450Z,11.10
2022-11-08T06:31:19.977Z,11.80
2022-11-08T06:33:47.725Z,12.27
2022-11-08T06:36:15.079Z,10.65
2022-11-08T06:38:42.443Z,10.57
2022-11-08T06:41:20.313Z,11.07
2022-11-08T06:43:49.078Z,11.73
2022-11-08T06:46:16.765Z,10.38
2022-11-08T06:48:44.755Z,10.38
2022-11-08T06:51:12.971Z,10.50
2022-11-08T06:53:40.542Z,11.68
2022-11-08T06:56:08.479Z,10.52
2022-11-08T06:58:36.268Z,10.27
2022-11-08T07:01:06.629Z,10.20
2022-11-08T07:03:34.922Z,11.05
2022-11-08T07:06:07.137Z,9.82
2022-11-08T07:08:35.572Z,10.40
2022-11-08T07:11:28.291Z,10.00
2022-11-08T07:13:55.514Z,9.88
2022-11-08T07:16:22.724Z,9.18
2022-11-08T07:18:51.421Z,9.02
2022-11-08T07:21:18.836Z,10.18
2022-11-08T07:23:46.145Z,9.65
2022-11-08T07:26:13.938Z,8.55
2022-11-08T07:28:42.262Z,9.57
2022-11-08T07:31:12.496Z,9.88
2022-11-08T07:33:43.090Z,8.98
2022-11-08T07:36:11.674Z,9.57
2022-11-08T07:38:39.612Z,10.05
2022-11-08T07:41:09.984Z,9.38
2022-11-08T07:43:37.602Z,9.70
2022-11-08T07:46:11.400Z,9.00
2022-11-08T07:48:38.812Z,10.00
2022-11-08T07:51:08.466Z,9.25
2022-11-08T07:53:35.897Z,9.00
2022-11-08T07:56:03.442Z,8.65
2022-11-08T07:58:30.829Z,7.80
2022-11-08T08:01:03.411Z,7.75
2022-11-08T08:03:31.753Z,7.80
2022-11-08T08:06:01.519Z,7.35
2022-11-08T08:08:30.050Z,7.53
2022-11-08T08:11:00.725Z,7.95
2022-11-08T08:13:31.984Z,8.77
2022-11-08T08:16:01.538Z,6.95
2022-11-08T08:18:30.789Z,6.95
2022-11-08T08:20:59.010Z,7.55
2022-11-08T08:23:26.394Z,7.15
2022-11-08T08:25:54.414Z,6.43
2022-11-08T08:28:22.123Z,7.10
2022-11-08T08:30:49.659Z,6.93
2022-11-08T08:33:34.701Z,6.85
2022-11-08T08:36:02.713Z,7.18
2022-11-08T08:38:36.795Z,6.38
2022-11-08T08:41:07.474Z,5.70
2022-11-08T08:43:34.709Z,4.82
2022-11-08T08:46:05.836Z,4.20
2022-11-08T08:48:33.594Z,4.25
2022-11-08T08:51:02.125Z,4.22
2022-11-08T08:53:30.090Z,4.20
2022-11-08T08:55:58.441Z,4.32
2022-11-08T08:58:26.117Z,3.70
2022-11-08T09:03:40.737Z,3.85
2022-11-08T09:06:08.293Z,3.97
2022-11-08T09:08:37.037Z,4.30
2022-11-08T09:11:04.756Z,3.88
2022-11-08T09:13:32.668Z,5.00
2022-11-08T09:16:02.827Z,3.95
2022-11-08T09:18:31.621Z,3.97
2022-11-08T09:21:00.541Z,4.70
2022-11-08T09:23:27.966Z,4.10
2022-11-08T09:26:02.565Z,4.35
2022-11-08T09:28:34.176Z,4.30
2022-11-08T09:31:06.419Z,3.47
2022-11-08T09:33:41.154Z,3.70
2022-11-08T09:36:13.926Z,3.42
2022-11-08T09:38:42.067Z,3.45
2022-11-08T09:41:59.386Z,3.60
2022-11-08T09:45:12.261Z,3.53
2022-11-08T09:47:52.038Z,3.30
2022-11-08T09:50:45.103Z,3.70
2022-11-08T09:53:57.623Z,3.03
2022-11-08T09:56:40.034Z,3.30
2022-11-08T09:59:43.464Z,2.83
2022-11-08T10:02:23.682Z,3.45
2022-11-08T10:05:06.008Z,3.60
2022-11-08T10:08:04.333Z,3.17
2022-11-08T10:11:05.926Z,5.07
2022-11-08T10:13:58.297Z,5.40
2022-11-08T10:17:02.017Z,3.45
2022-11-08T10:20:10.573Z,3.65
2022-11-08T10:23:18.292Z,3.30
2022-11-08T10:26:18.033Z,3.65
2022-11-08T10:29:08.898Z,4.22
2022-11-08T10:31:41.285Z,3.67
2022-11-08T10:34:27.228Z,3.92
2022-11-08T10:37:04.295Z,4.00
2022-11-08T10:39:55.683Z,4.32
2022-11-08T10:42:45.604Z,4.30
2022-11-08T10:45:13.341Z,4.70
2022-11-08T10:47:45.140Z,4.38
2022-11-08T10:50:26.223Z,5.10
2022-11-08T10:53:08.454Z,4.60
2022-11-08T10:55:49.007Z,4.55
2022-11-08T10:58:41.440Z,4.03
2022-11-08T11:01:25.608Z,4.50
2022-11-08T11:03:54.108Z,4.07
2022-11-08T11:06:33.438Z,3.83
2022-11-08T11:09:21.688Z,3.70
2022-11-08T11:12:15.366Z,3.60
2022-11-08T11:14:58.478Z,3.80
2022-11-08T11:17:37.181Z,3.13
2022-11-08T11:20:23.996Z,3.53
2022-11-08T11:22:53.634Z,3.60
2022-11-08T11:25:24.296Z,3.50
2022-11-08T11:27:59.664Z,3.60
2022-11-08T11:30:34.713Z,4.00
2022-11-08T11:33:25.861Z,3.58
2022-11-08T11:36:12.190Z,4.20
2022-11-08T11:38:56.273Z,4.28
2022-11-08T11:41:56.067Z,3.42
2022-11-08T11:44:35.951Z,3.70
2022-11-08T11:47:16.469Z,4.28
2022-11-08T11:49:45.759Z,3.85
2022-11-08T11:52:19.705Z,3.70
2022-11-08T11:54:49.819Z,3.30
2022-11-08T11:58:13.195Z,3.00
2022-11-08T12:01:18.705Z,2.60
2022-11-08T12:04:06.830Z,2.55
2022-11-08T12:06:42.841Z,2.58
2022-11-08T12:09:42.435Z,2.85
2022-11-08T12:12:31.587Z,3.13
2022-11-08T12:15:34.982Z,3.25
2022-11-08T12:18:52.625Z,3.35
2022-11-08T12:22:01.392Z,3.00
2022-11-08T12:25:13.564Z,2.97
2022-11-08T12:28:06.740Z,3.33
2022-11-08T12:30:58.740Z,3.83
2022-11-08T12:33:56.731Z,4.40
2022-11-08T12:36:52.274Z,3.92
2022-11-08T12:39:35.980Z,3.75
2022-11-08T12:42:44.692Z,3.17
2022-11-08T12:45:55.252Z,3.55
2022-11-08T12:49:24.665Z,3.70
2022-11-08T12:52:19.515Z,3.17
2022-11-08T12:55:03.448Z,3.53
2022-11-08T12:57:32.196Z,3.20
2022-11-08T13:00:13.109Z,3.47
2022-11-08T13:02:44.761Z,3.45
2022-11-08T13:05:58.649Z,3.20
2022-11-08T13:08:59.128Z,3.30
2022-11-08T13:11:45.685Z,3.47
2022-11-08T13:14:19.875Z,3.78
2022-11-08T13:17:24.901Z,3.30
2022-11-08T13:20:06.160Z,3.30
2022-11-08T13:22:45.838Z,3.47
2022-11-08T13:25:23.565Z,2.58
2022-11-08T13:27:51.154Z,2.95
2022-11-08T13:30:18.519Z,2.90
2022-11-08T13:33:15.148Z,2.75
2022-11-08T13:35:51.017Z,2.42
2022-11-08T13:39:03.952Z,3.00
2022-11-08T13:41:31.789Z,2.78
2022-11-08T13:44:00.988Z,2.83
2022-11-08T13:46:29.389Z,5.00
2022-11-08T13:49:05.691Z,2.70
2022-11-08T13:51:47.102Z,2.70
2022-11-08T13:54:31.631Z,2.90
2022-11-08T13:58:03.040Z,3.00
2022-11-08T14:00:47.367Z,2.78
2022-11-08T14:03:48.478Z,2.70
2022-11-08T14:07:07.337Z,2.95
2022-11-08T14:10:28.688Z,4.07
2022-11-08T14:13:53.216Z,3.20
2022-11-08T14:16:48.500Z,2.90
2022-11-08T14:19:31.968Z,3.65
2022-11-08T14:22:05.333Z,3.33
2022-11-08T14:24:40.185Z,3.78
2022-11-08T14:27:12.239Z,5.18
2022-11-08T14:29:41.760Z,4.20
2022-11-08T14:32:24.652Z,3.65
2022-11-08T14:34:51.962Z,3.83
2022-11-08T14:37:27.667Z,3.33
2022-11-08T14:39:55.003Z,3.67
2022-11-08T14:42:26.324Z,3.20
2022-11-08T14:48:03.379Z,3.50
2022-11-08T14:50:35.421Z,3.30
2022-11-08T14:53:47.175Z,3.28
2022-11-08T14:56:27.783Z,3.17
2022-11-08T14:58:56.266Z,3.20
2022-11-08T15:01:26.958Z,3.28
2022-11-08T15:04:13.598Z,3.70
2022-11-08T15:06:47.020Z,3.60
2022-11-08T15:09:35.937Z,3.63
2022-11-08T15:12:14.218Z,3.22
2022-11-08T15:15:00.813Z,3.75
2022-11-08T15:17:39.615Z,3.90
2022-11-08T15:20:21.803Z,3.97
2022-11-08T15:22:52.945Z,3.60
2022-11-08T15:25:38.543Z,3.33
2022-11-08T15:28:26.087Z,3.35
2022-11-08T15:31:03.103Z,3.85
2022-11-08T15:33:40.804Z,4.03
2022-11-08T15:36:16.562Z,3.50
2022-11-08T15:38:50.551Z,3.60
2022-11-08T15:41:39.614Z,4.90
2022-11-08T15:44:24.726Z,3.85
2022-11-08T15:46:56.100Z,3.70
2022-11-08T15:49:28.711Z,4.13
2022-11-08T15:52:01.110Z,3.60
2022-11-08T15:54:28.738Z,3.92
2022-11-08T15:56:57.523Z,4.40
2022-11-08T15:59:30.190Z,4.23
2022-11-08T16:02:02.993Z,4.55
2022-11-08T16:04:30.865Z,4.55
2022-11-08T16:06:58.475Z,4.97
2022-11-08T16:09:26.591Z,4.57
2022-11-08T16:11:54.561Z,5.05
2022-11-08T16:14:25.125Z,4.63
2022-11-08T16:16:52.856Z,4.10
2022-11-08T16:19:25.005Z,4.25
2022-11-08T16:21:52.955Z,4.55
2022-11-08T16:24:20.294Z,4.80
2022-11-08T16:26:49.431Z,4.65
2022-11-08T16:29:24.187Z,4.85
2022-11-08T16:31:52.240Z,5.10
2022-11-08T16:34:20.495Z,5.20
2022-11-08T16:36:52.145Z,5.03
2022-11-08T16:39:26.165Z,5.32
2022-11-08T16:41:53.442Z,6.47
2022-11-08T16:44:20.738Z,5.88
2022-11-08T16:47:18.599Z,5.75
2022-11-08T16:49:51.437Z,8.07
2022-11-08T16:52:19.587Z,13.45
2022-11-08T16:54:47.892Z,8.57
2022-11-08T16:57:45.353Z,7.57
2022-11-08T17:00:04.952Z,7.32
2022-11-08T17:02:36.019Z,7.35
2022-11-08T17:05:04.197Z,7.25
2022-11-08T17:07:31.988Z,7.50
2022-11-08T17:10:00.050Z,6.57
2022-11-08T17:12:27.825Z,6.03
2022-11-08T17:14:56.199Z,7.72
2022-11-08T17:17:25.901Z,6.03
2022-11-08T17:19:54.867Z,6.90
2022-11-08T17:22:22.136Z,7.40
2022-11-08T17:24:49.530Z,6.38
2022-11-08T17:27:19.984Z,5.82
2022-11-08T17:29:47.439Z,6.57
2022-11-08T17:32:14.711Z,5.70
2022-11-08T17:34:42.039Z,5.80
2022-11-08T17:37:09.392Z,6.25
2022-11-08T17:39:36.793Z,6.15
2022-11-08T17:42:05.267Z,7.55
2022-11-08T17:44:33.483Z,8.15
2022-11-08T17:47:01.323Z,8.02
2022-11-08T17:49:29.684Z,7.70
2022-11-08T17:51:57.701Z,7.85
2022-11-08T17:54:25.311Z,7.40
2022-11-08T17:56:52.956Z,9.25
2022-11-08T17:59:21.289Z,7.90
2022-11-08T18:01:48.741Z,8.48
2022-11-08T18:04:16.586Z,8.57
2022-11-08T18:06:44.530Z,7.82
2022-11-08T18:09:12.871Z,7.72
2022-11-08T18:11:47.536Z,7.10
2022-11-08T18:14:28.056Z,7.00
2022-11-08T18:16:57.026Z,6.63
2022-11-08T18:19:24.762Z,15.25
2022-11-08T18:21:52.005Z,10.40
2022-11-08T18:24:19.500Z,8.85
2022-11-08T18:26:47.461Z,8.90
2022-11-08T18:29:15.933Z,7.22
2022-11-08T18:31:43.513Z,6.28
2022-11-08T18:34:10.882Z,8.63
2022-11-08T18:36:38.897Z,7.72
2022-11-08T18:39:06.427Z,7.22
2022-11-08T18:41:34.350Z,6.60
2022-11-08T18:44:02.992Z,7.20
2022-11-08T18:46:34.263Z,6.32
2022-11-08T18:49:06.260Z,6.82
2022-11-08T18:51:34.685Z,6.47
2022-11-08T18:54:02.407Z,6.88
2022-11-08T18:56:30.005Z,7.20
2022-11-08T18:58:57.400Z,7.10
2022-11-08T19:01:25.074Z,6.95
2022-11-08T19:03:52.458Z,6.97
2022-11-08T19:06:19.918Z,6.78
2022-11-08T19:08:48.071Z,6.95
2022-11-08T19:11:20.459Z,7.55
2022-11-08T19:13:50.630Z,7.22
2022-11-08T19:16:20.755Z,6.85
2022-11-08T19:18:51.845Z,7.68
2022-11-08T19:21:24.222Z,7.70
2022-11-08T19:23:58.618Z,7.75
2022-11-08T19:26:29.525Z,7.95
2022-11-08T19:28:58.507Z,8.30
2022-11-08T19:31:26.543Z,9.45
2022-11-08T19:33:55.791Z,21.10
2022-11-08T19:36:28.288Z,12.68
2022-11-08T19:38:58.533Z,21.42
2022-11-08T19:41:29.061Z,16.35
2022-11-08T19:43:59.335Z,16.35
2022-11-08T19:46:30.424Z,13.35
2022-11-08T19:49:24.295Z,10.10
2022-11-08T19:51:51.831Z,11.00
2022-11-08T19:54:19.302Z,9.90
2022-11-08T19:57:04.591Z,10.88
2022-11-08T19:59:36.187Z,10.82
2022-11-08T20:02:03.851Z,11.60
2022-11-08T20:04:31.499Z,11.60
2022-11-08T20:06:59.181Z,10.07
2022-11-08T20:09:30.582Z,10.38
2022-11-08T20:11:58.463Z,9.73
2022-11-08T20:14:26.298Z,9.57
2022-11-08T20:16:59.847Z,10.18
2022-11-08T20:19:27.392Z,10.10
2022-11-08T20:21:56.961Z,9.00
2022-11-08T20:24:24.532Z,9.07
2022-11-08T20:26:52.150Z,8.93
2022-11-08T20:29:19.507Z,9.82
2022-11-08T20:31:50.318Z,10.13
2022-11-08T20:34:18.901Z,9.15
2022-11-08T20:36:46.330Z,9.95
2022-11-08T20:39:15.386Z,8.15
2022-11-08T20:41:43.071Z,7.90
2022-11-08T20:44:11.858Z,7.57
2022-11-08T20:46:39.600Z,7.10
2022-11-08T20:49:08.417Z,7.47
2022-11-08T20:51:39.138Z,8.05
2022-11-08T20:54:09.293Z,7.15
2022-11-08T20:56:37.053Z,8.23
2022-11-08T20:59:04.672Z,7.88
2022-11-08T21:01:36.091Z,8.18
2022-11-08T21:04:03.852Z,8.13
2022-11-08T21:06:36.020Z,8.80
2022-11-08T21:11:54.449Z,9.23
2022-11-08T21:14:23.807Z,8.98
2022-11-08T21:17:20.047Z,8.95
2022-11-08T21:19:39.907Z,10.90
2022-11-08T21:22:16.418Z,11.52
2022-11-08T21:24:47.780Z,9.85
2022-11-08T21:27:18.800Z,9.07
2022-11-08T21:29:46.548Z,9.82
2022-11-08T21:32:14.458Z,9.30
2022-11-08T21:34:46.070Z,8.45
2022-11-08T21:37:18.050Z,9.88
2022-11-08T21:39:45.512Z,10.48
2022-11-08T21:42:13.870Z,10.95
2022-11-08T21:44:41.508Z,11.57
2022-11-08T21:47:09.960Z,12.32
2022-11-08T21:49:40.175Z,11.85
2022-11-08T21:52:07.853Z,10.50
2022-11-08T21:55:00.566Z,12.13
2022-11-08T21:57:28.636Z,11.50
2022-11-08T21:59:56.064Z,11.05
2022-11-08T22:02:23.614Z,12.27
2022-11-08T22:04:50.875Z,11.50
2022-11-08T22:07:18.668Z,10.80
2022-11-08T22:09:53.458Z,11.70
2022-11-08T22:12:21.343Z,10.90
2022-11-08T22:14:50.956Z,10.45
2022-11-08T22:17:21.494Z,10.85
2022-11-08T22:19:49.824Z,10.93
2022-11-08T22:22:17.646Z,9.90
2022-11-08T22:24:45.771Z,10.20
2022-11-08T22:27:14.135Z,11.02
2022-11-08T22:29:41.813Z,11.75
2022-11-08T22:32:09.372Z,13.73
2022-11-08T22:34:36.735Z,13.25
2022-11-08T22:37:04.104Z,11.90
2022-11-08T22:39:31.598Z,10.60
2022-11-08T22:42:05.819Z,10.60
2022-11-08T22:44:36.497Z,11.50
2022-11-08T22:47:04.773Z,11.50
2022-11-08T22:49:37.061Z,11.23
2022-11-08T22:52:06.890Z,11.05
2022-11-08T22:54:34.933Z,10.60
2022-11-08T22:57:09.141Z,10.48
2022-11-08T22:59:36.463Z,10.45
2022-11-08T23:02:03.889Z,10.80
2022-11-08T23:04:31.402Z,9.88
2022-11-08T23:07:02.070Z,10.05
2022-11-08T23:09:29.808Z,10.23
2022-11-08T23:12:20.537Z,9.50
2022-11-08T23:15:06.501Z,8.18
2022-11-08T23:17:34.064Z,8.95
2022-11-08T23:20:26.099Z,8.13
2022-11-08T23:23:12.487Z,8.88
2022-11-08T23:25:40.649Z,8.40
2022-11-08T23:28:27.116Z,9.63
2022-11-08T23:31:15.974Z,8.35
2022-11-08T23:33:46.182Z,8.43
2022-11-08T23:36:14.632Z,8.18
2022-11-08T23:38:47.093Z,7.88
2022-11-08T23:41:33.790Z,8.10
2022-11-08T23:44:19.694Z,8.85
2022-11-08T23:46:47.053Z,8.35
2022-11-08T23:49:14.363Z,7.72
2022-11-08T23:52:12.214Z,8.30
2022-11-08T23:55:08.602Z,8.43
2022-11-08T23:58:01.195Z,8.52
